sensor_id;sensor_type;location;lat;lon;timestamp;pressure;altitude;pressure_sealevel;temperature;humidity
4199;BME280;2113;50.946;14.610;2023-04-29T00:01:19;96374.47;;;7.93;88.10
4199;BME280;2113;50.946;14.610;2023-04-29T00:03:47;96376.53;;;7.99;88.13
4199;BME280;2113;50.946;14.610;2023-04-29T00:06:16;96384.06;;;7.82;89.09
4199;BME280;2113;50.946;14.610;2023-04-29T00:08:45;96394.19;;;7.85;89.18
4199;BME280;2113;50.946;14.610;2023-04-29T00:11:14;96388.59;;;7.90;89.28
4199;BME280;2113;50.946;14.610;2023-04-29T00:13:42;96389.41;;;7.91;89.32
4199;BME280;2113;50.946;14.610;2023-04-29T00:16:10;96396.94;;;7.84;89.50
4199;BME280;2113;50.946;14.610;2023-04-29T00:18:39;96398.16;;;7.80;89.64
4199;BME280;2113;50.946;14.610;2023-04-29T00:21:08;96391.03;;;7.82;89.80
4199;BME280;2113;50.946;14.610;2023-04-29T00:23:36;96389.69;;;7.88;89.86
4199;BME280;2113;50.946;14.610;2023-04-29T00:26:04;96381.88;;;7.88;89.65
4199;BME280;2113;50.946;14.610;2023-04-29T00:28:34;96378.19;;;7.90;89.95
4199;BME280;2113;50.946;14.610;2023-04-29T00:31:02;96377.38;;;7.90;89.69
4199;BME280;2113;50.946;14.610;2023-04-29T00:33:31;96382.56;;;7.90;89.85
4199;BME280;2113;50.946;14.610;2023-04-29T00:35:59;96378.47;;;7.87;89.90
4199;BME280;2113;50.946;14.610;2023-04-29T00:38:28;96373.25;;;7.87;90.22
4199;BME280;2113;50.946;14.610;2023-04-29T00:40:56;96377.22;;;7.91;90.17
4199;BME280;2113;50.946;14.610;2023-04-29T00:43:25;96374.78;;;7.90;90.60
4199;BME280;2113;50.946;14.610;2023-04-29T00:45:54;96374.94;;;7.78;91.03
4199;BME280;2113;50.946;14.610;2023-04-29T00:48:24;96366.97;;;7.80;91.01
4199;BME280;2113;50.946;14.610;2023-04-29T00:50:53;96367.94;;;7.79;91.25
4199;BME280;2113;50.946;14.610;2023-04-29T00:53:22;96360.16;;;7.79;91.20
4199;BME280;2113;50.946;14.610;2023-04-29T00:55:50;96360.94;;;7.79;91.45
4199;BME280;2113;50.946;14.610;2023-04-29T00:58:19;96361.13;;;7.78;91.42
4199;BME280;2113;50.946;14.610;2023-04-29T01:00:48;96368.59;;;7.81;91.75
4199;BME280;2113;50.946;14.610;2023-04-29T01:03:18;96362.75;;;7.79;91.78
4199;BME280;2113;50.946;14.610;2023-04-29T01:05:53;96361.75;;;7.80;91.77
4199;BME280;2113;50.946;14.610;2023-04-29T01:08:35;96358.22;;;7.81;91.29
4199;BME280;2113;50.946;14.610;2023-04-29T01:11:07;96355.34;;;7.84;91.45
4199;BME280;2113;50.946;14.610;2023-04-29T01:13:42;96357.25;;;7.82;91.95
4199;BME280;2113;50.946;14.610;2023-04-29T01:16:19;96357.25;;;7.82;92.30
4199;BME280;2113;50.946;14.610;2023-04-29T01:18:53;96365.19;;;7.80;93.47
4199;BME280;2113;50.946;14.610;2023-04-29T01:21:27;96352.06;;;7.72;94.19
4199;BME280;2113;50.946;14.610;2023-04-29T01:23:59;96362.34;;;7.74;94.51
4199;BME280;2113;50.946;14.610;2023-04-29T01:26:32;96353.88;;;7.62;94.79
4199;BME280;2113;50.946;14.610;2023-04-29T01:29:27;96354.28;;;7.58;95.69
4199;BME280;2113;50.946;14.610;2023-04-29T01:32:04;96355.22;;;7.57;96.66
4199;BME280;2113;50.946;14.610;2023-04-29T01:34:41;96358.25;;;7.52;97.82
4199;BME280;2113;50.946;14.610;2023-04-29T01:37:16;96361.94;;;7.59;97.65
4199;BME280;2113;50.946;14.610;2023-04-29T01:39:55;96368.22;;;7.57;97.63
4199;BME280;2113;50.946;14.610;2023-04-29T01:42:33;96365.09;;;7.63;96.79
4199;BME280;2113;50.946;14.610;2023-04-29T01:45:09;96358.09;;;7.73;96.38
4199;BME280;2113;50.946;14.610;2023-04-29T01:47:38;96369.59;;;7.70;97.37
4199;BME280;2113;50.946;14.610;2023-04-29T01:50:08;96369.03;;;7.67;97.68
4199;BME280;2113;50.946;14.610;2023-04-29T01:52:37;96372.31;;;7.69;97.19
4199;BME280;2113;50.946;14.610;2023-04-29T01:55:07;96367.81;;;7.71;97.06
4199;BME280;2113;50.946;14.610;2023-04-29T01:57:44;96369.56;;;7.80;96.57
4199;BME280;2113;50.946;14.610;2023-04-29T02:00:26;96364.38;;;7.80;96.97
4199;BME280;2113;50.946;14.610;2023-04-29T02:02:55;96365.34;;;7.79;96.27
4199;BME280;2113;50.946;14.610;2023-04-29T02:05:32;96364.22;;;7.81;96.55
4199;BME280;2113;50.946;14.610;2023-04-29T02:08:01;96365.06;;;7.82;96.85
4199;BME280;2113;50.946;14.610;2023-04-29T02:10:33;96357.25;;;7.82;96.70
4199;BME280;2113;50.946;14.610;2023-04-29T02:13:12;96354.50;;;7.83;96.95
4199;BME280;2113;50.946;14.610;2023-04-29T02:15:41;96350.41;;;7.81;97.30
4199;BME280;2113;50.946;14.610;2023-04-29T02:18:09;96362.31;;;7.83;97.14
4199;BME280;2113;50.946;14.610;2023-04-29T02:20:39;96371.78;;;7.75;98.03
4199;BME280;2113;50.946;14.610;2023-04-29T02:23:08;96357.97;;;7.74;97.94
4199;BME280;2113;50.946;14.610;2023-04-29T02:25:37;96357.13;;;7.74;97.92
4199;BME280;2113;50.946;14.610;2023-04-29T02:28:06;96355.09;;;7.77;97.83
4199;BME280;2113;50.946;14.610;2023-04-29T02:30:38;96358.66;;;7.76;97.68
4199;BME280;2113;50.946;14.610;2023-04-29T02:33:07;96360.28;;;7.77;98.00
4199;BME280;2113;50.946;14.610;2023-04-29T02:35:35;96353.16;;;7.79;97.61
4199;BME280;2113;50.946;14.610;2023-04-29T02:38:03;96357.38;;;7.80;97.64
4199;BME280;2113;50.946;14.610;2023-04-29T02:40:31;96351.78;;;7.85;97.34
4199;BME280;2113;50.946;14.610;2023-04-29T02:43:01;96352.88;;;7.82;97.47
4199;BME280;2113;50.946;14.610;2023-04-29T02:45:29;96354.38;;;7.85;96.84
4199;BME280;2113;50.946;14.610;2023-04-29T02:47:58;96361.63;;;7.81;97.31
4199;BME280;2113;50.946;14.610;2023-04-29T02:50:45;96360.00;;;7.80;97.16
4199;BME280;2113;50.946;14.610;2023-04-29T02:53:32;96367.25;;;7.77;97.48
4199;BME280;2113;50.946;14.610;2023-04-29T02:56:00;96371.22;;;7.81;97.40
4199;BME280;2113;50.946;14.610;2023-04-29T02:58:30;96373.94;;;7.79;97.71
4199;BME280;2113;50.946;14.610;2023-04-29T03:00:58;96377.66;;;7.77;98.13
4199;BME280;2113;50.946;14.610;2023-04-29T03:03:26;96379.44;;;7.76;97.98
4199;BME280;2113;50.946;14.610;2023-04-29T03:05:55;96374.63;;;7.81;97.90
4199;BME280;2113;50.946;14.610;2023-04-29T03:08:23;96379.00;;;7.81;98.02
4199;BME280;2113;50.946;14.610;2023-04-29T03:10:51;96379.69;;;7.83;97.69
4199;BME280;2113;50.946;14.610;2023-04-29T03:13:19;96376.13;;;7.84;97.77
4199;BME280;2113;50.946;14.610;2023-04-29T03:15:49;96372.03;;;7.81;98.08
4199;BME280;2113;50.946;14.610;2023-04-29T03:18:17;96369.56;;;7.80;98.85
4199;BME280;2113;50.946;14.610;2023-04-29T03:20:46;96364.53;;;7.78;99.06
4199;BME280;2113;50.946;14.610;2023-04-29T03:23:15;96364.38;;;7.80;99.02
4199;BME280;2113;50.946;14.610;2023-04-29T03:25:43;96367.41;;;7.75;99.31
4199;BME280;2113;50.946;14.610;2023-04-29T03:28:11;96366.03;;;7.71;100.00
4199;BME280;2113;50.946;14.610;2023-04-29T03:30:40;96367.38;;;7.66;100.00
4199;BME280;2113;50.946;14.610;2023-04-29T03:33:10;96361.25;;;7.67;100.00
4199;BME280;2113;50.946;14.610;2023-04-29T03:35:38;96355.91;;;7.68;100.00
4199;BME280;2113;50.946;14.610;2023-04-29T03:38:19;96356.03;;;7.67;100.00
4199;BME280;2113;50.946;14.610;2023-04-29T03:40:48;96354.16;;;7.59;100.00
4199;BME280;2113;50.946;14.610;2023-04-29T03:43:17;96354.97;;;7.60;100.00
4199;BME280;2113;50.946;14.610;2023-04-29T03:45:45;96340.75;;;7.64;100.00
4199;BME280;2113;50.946;14.610;2023-04-29T03:48:18;96332.13;;;7.63;100.00
4199;BME280;2113;50.946;14.610;2023-04-29T03:50:47;96317.06;;;7.67;100.00
4199;BME280;2113;50.946;14.610;2023-04-29T03:53:16;96328.69;;;7.72;100.00
4199;BME280;2113;50.946;14.610;2023-04-29T03:55:44;96339.50;;;7.68;100.00
4199;BME280;2113;50.946;14.610;2023-04-29T03:58:15;96345.25;;;7.62;100.00
4199;BME280;2113;50.946;14.610;2023-04-29T04:00:43;96345.25;;;7.62;100.00
4199;BME280;2113;50.946;14.610;2023-04-29T04:03:19;96337.19;;;7.65;100.00
4199;BME280;2113;50.946;14.610;2023-04-29T04:05:49;96341.56;;;7.64;100.00
4199;BME280;2113;50.946;14.610;2023-04-29T04:08:17;96341.28;;;7.77;100.00
4199;BME280;2113;50.946;14.610;2023-04-29T04:11:01;96337.16;;;7.74;100.00
4199;BME280;2113;50.946;14.610;2023-04-29T04:13:41;96327.59;;;7.75;100.00
4199;BME280;2113;50.946;14.610;2023-04-29T04:16:10;96335.66;;;7.72;100.00
4199;BME280;2113;50.946;14.610;2023-04-29T04:18:40;96327.72;;;7.73;100.00
4199;BME280;2113;50.946;14.610;2023-04-29T04:21:09;96323.63;;;7.71;100.00
4199;BME280;2113;50.946;14.610;2023-04-29T04:23:40;96336.75;;;7.69;100.00
4199;BME280;2113;50.946;14.610;2023-04-29T04:26:13;96332.25;;;7.71;100.00
4199;BME280;2113;50.946;14.610;2023-04-29T04:29:00;96331.16;;;7.64;100.00
4199;BME280;2113;50.946;14.610;2023-04-29T04:31:38;96334.44;;;7.66;100.00
4199;BME280;2113;50.946;14.610;2023-04-29T04:34:09;96335.41;;;7.65;100.00
4199;BME280;2113;50.946;14.610;2023-04-29T04:36:38;96334.16;;;7.69;100.00
4199;BME280;2113;50.946;14.610;2023-04-29T04:39:07;96335.25;;;7.76;100.00
4199;BME280;2113;50.946;14.610;2023-04-29T04:41:35;96336.47;;;7.72;100.00
4199;BME280;2113;50.946;14.610;2023-04-29T04:44:04;96343.59;;;7.70;100.00
4199;BME280;2113;50.946;14.610;2023-04-29T04:46:40;96340.19;;;7.70;100.00
4199;BME280;2113;50.946;14.610;2023-04-29T04:49:27;96335.78;;;7.70;100.00
4199;BME280;2113;50.946;14.610;2023-04-29T04:51:56;96341.69;;;7.72;100.00
4199;BME280;2113;50.946;14.610;2023-04-29T04:54:24;96345.78;;;7.75;100.00
4199;BME280;2113;50.946;14.610;2023-04-29T04:57:03;96333.88;;;7.72;100.00
4199;BME280;2113;50.946;14.610;2023-04-29T04:59:32;96346.59;;;7.66;100.00
4199;BME280;2113;50.946;14.610;2023-04-29T05:02:01;96346.59;;;7.66;100.00
4199;BME280;2113;50.946;14.610;2023-04-29T05:04:31;96353.59;;;7.75;100.00
4199;BME280;2113;50.946;14.610;2023-04-29T05:06:59;96343.41;;;8.01;100.00
4199;BME280;2113;50.946;14.610;2023-04-29T05:09:34;96349.63;;;8.27;100.00
4199;BME280;2113;50.946;14.610;2023-04-29T05:12:03;96356.41;;;8.47;100.00
4199;BME280;2113;50.946;14.610;2023-04-29T05:14:31;96354.72;;;8.56;99.43
4199;BME280;2113;50.946;14.610;2023-04-29T05:17:00;96345.84;;;8.49;99.55
4199;BME280;2113;50.946;14.610;2023-04-29T05:19:28;96340.00;;;8.37;99.79
4199;BME280;2113;50.946;14.610;2023-04-29T05:21:58;96343.69;;;8.44;99.88
4199;BME280;2113;50.946;14.610;2023-04-29T05:24:27;96346.34;;;8.62;99.72
4199;BME280;2113;50.946;14.610;2023-04-29T05:26:56;96349.00;;;8.80;98.53
4199;BME280;2113;50.946;14.610;2023-04-29T05:29:24;96349.16;;;8.96;98.02
4199;BME280;2113;50.946;14.610;2023-04-29T05:31:57;96344.88;;;9.22;97.54
4199;BME280;2113;50.946;14.610;2023-04-29T05:34:26;96354.41;;;9.32;96.20
4199;BME280;2113;50.946;14.610;2023-04-29T05:36:55;96356.63;;;9.09;95.09
4199;BME280;2113;50.946;14.610;2023-04-29T05:39:25;96353.41;;;8.97;95.86
4199;BME280;2113;50.946;14.610;2023-04-29T05:42:05;96346.91;;;8.83;96.51
4199;BME280;2113;50.946;14.610;2023-04-29T05:44:37;96353.16;;;8.90;96.62
4199;BME280;2113;50.946;14.610;2023-04-29T05:47:05;96356.19;;;9.31;96.43
4199;BME280;2113;50.946;14.610;2023-04-29T05:49:34;96354.69;;;9.82;93.89
4199;BME280;2113;50.946;14.610;2023-04-29T05:52:03;96351.59;;;10.12;90.58
4199;BME280;2113;50.946;14.610;2023-04-29T05:54:39;96352.53;;;10.29;88.42
4199;BME280;2113;50.946;14.610;2023-04-29T05:57:07;96356.47;;;10.25;88.89
4199;BME280;2113;50.946;14.610;2023-04-29T05:59:35;96359.94;;;9.90;89.59
4199;BME280;2113;50.946;14.610;2023-04-29T06:02:05;96355.41;;;9.74;90.68
4199;BME280;2113;50.946;14.610;2023-04-29T06:04:34;96357.16;;;9.66;91.38
4199;BME280;2113;50.946;14.610;2023-04-29T06:07:13;96360.28;;;9.34;93.33
4199;BME280;2113;50.946;14.610;2023-04-29T06:10:10;96370.31;;;9.11;93.73
4199;BME280;2113;50.946;14.610;2023-04-29T06:12:41;96367.94;;;9.00;94.75
4199;BME280;2113;50.946;14.610;2023-04-29T06:15:11;96373.44;;;8.97;94.93
4199;BME280;2113;50.946;14.610;2023-04-29T06:17:39;96381.66;;;8.92;96.21
4199;BME280;2113;50.946;14.610;2023-04-29T06:20:09;96380.91;;;8.82;97.24
4199;BME280;2113;50.946;14.610;2023-04-29T06:22:38;96380.38;;;8.78;97.64
4199;BME280;2113;50.946;14.610;2023-04-29T06:25:07;96382.28;;;8.76;97.76
4199;BME280;2113;50.946;14.610;2023-04-29T06:27:48;96382.59;;;8.73;98.80
4199;BME280;2113;50.946;14.610;2023-04-29T06:30:19;96379.56;;;8.78;99.51
4199;BME280;2113;50.946;14.610;2023-04-29T06:32:48;96381.31;;;8.87;98.82
4199;BME280;2113;50.946;14.610;2023-04-29T06:35:16;96377.31;;;9.10;98.52
4199;BME280;2113;50.946;14.610;2023-04-29T06:38:05;96381.66;;;9.37;98.29
4199;BME280;2113;50.946;14.610;2023-04-29T06:40:40;96380.22;;;9.96;97.18
4199;BME280;2113;50.946;14.610;2023-04-29T06:43:15;96377.94;;;10.19;94.25
4199;BME280;2113;50.946;14.610;2023-04-29T06:46:02;96377.75;;;10.80;92.07
4199;BME280;2113;50.946;14.610;2023-04-29T06:48:39;96376.16;;;10.79;89.21
4199;BME280;2113;50.946;14.610;2023-04-29T06:51:07;96379.94;;;10.51;93.04
4199;BME280;2113;50.946;14.610;2023-04-29T06:53:37;96379.97;;;10.07;93.73
4199;BME280;2113;50.946;14.610;2023-04-29T06:56:06;96378.97;;;9.65;95.91
4199;BME280;2113;50.946;14.610;2023-04-29T06:58:36;96390.22;;;9.47;97.72
4199;BME280;2113;50.946;14.610;2023-04-29T07:01:06;96395.81;;;9.35;98.74
4199;BME280;2113;50.946;14.610;2023-04-29T07:03:35;96392.53;;;9.33;99.58
4199;BME280;2113;50.946;14.610;2023-04-29T07:06:03;96393.19;;;9.35;100.00
4199;BME280;2113;50.946;14.610;2023-04-29T07:08:32;96392.00;;;9.47;99.67
4199;BME280;2113;50.946;14.610;2023-04-29T07:11:01;96393.66;;;9.48;99.05
4199;BME280;2113;50.946;14.610;2023-04-29T07:13:30;96399.09;;;9.54;99.83
4199;BME280;2113;50.946;14.610;2023-04-29T07:15:59;96401.63;;;9.64;99.34
4199;BME280;2113;50.946;14.610;2023-04-29T07:18:28;96405.63;;;9.58;99.11
4199;BME280;2113;50.946;14.610;2023-04-29T07:20:59;96412.34;;;9.61;99.62
4199;BME280;2113;50.946;14.610;2023-04-29T07:23:28;96412.19;;;9.45;99.41
4199;BME280;2113;50.946;14.610;2023-04-29T07:25:56;96411.00;;;9.39;100.00
4199;BME280;2113;50.946;14.610;2023-04-29T07:28:25;96403.47;;;9.36;100.00
4199;BME280;2113;50.946;14.610;2023-04-29T07:30:55;96408.00;;;9.34;100.00
4199;BME280;2113;50.946;14.610;2023-04-29T07:33:24;96407.88;;;9.36;100.00
4199;BME280;2113;50.946;14.610;2023-04-29T07:35:53;96414.34;;;9.49;100.00
4199;BME280;2113;50.946;14.610;2023-04-29T07:38:21;96418.81;;;9.57;100.00
4199;BME280;2113;50.946;14.610;2023-04-29T07:40:49;96411.22;;;9.81;100.00
4199;BME280;2113;50.946;14.610;2023-04-29T07:43:18;96413.97;;;9.97;99.82
4199;BME280;2113;50.946;14.610;2023-04-29T07:45:46;96402.00;;;10.13;98.26
4199;BME280;2113;50.946;14.610;2023-04-29T07:48:14;96408.66;;;10.51;97.90
4199;BME280;2113;50.946;14.610;2023-04-29T07:50:44;96413.78;;;10.68;96.28
4199;BME280;2113;50.946;14.610;2023-04-29T07:53:13;96415.91;;;10.65;96.38
4199;BME280;2113;50.946;14.610;2023-04-29T07:55:43;96421.03;;;10.49;96.19
4199;BME280;2113;50.946;14.610;2023-04-29T07:58:11;96421.59;;;10.17;97.24
4199;BME280;2113;50.946;14.610;2023-04-29T08:00:39;96430.44;;;9.80;98.16
4199;BME280;2113;50.946;14.610;2023-04-29T08:03:08;96434.94;;;9.70;100.00
4199;BME280;2113;50.946;14.610;2023-04-29T08:05:37;96436.91;;;9.76;100.00
4199;BME280;2113;50.946;14.610;2023-04-29T08:08:07;96439.38;;;9.78;100.00
4199;BME280;2113;50.946;14.610;2023-04-29T08:10:37;96438.28;;;9.80;100.00
4199;BME280;2113;50.946;14.610;2023-04-29T08:13:09;96444.44;;;9.61;100.00
4199;BME280;2113;50.946;14.610;2023-04-29T08:15:38;96443.09;;;9.75;100.00
4199;BME280;2113;50.946;14.610;2023-04-29T08:18:06;96443.53;;;9.88;99.71
4199;BME280;2113;50.946;14.610;2023-04-29T08:20:35;96439.97;;;10.07;99.79
4199;BME280;2113;50.946;14.610;2023-04-29T08:23:03;96436.69;;;10.23;99.26
4199;BME280;2113;50.946;14.610;2023-04-29T08:25:33;96439.38;;;10.39;98.22
4199;BME280;2113;50.946;14.610;2023-04-29T08:28:01;96439.66;;;10.54;96.91
4199;BME280;2113;50.946;14.610;2023-04-29T08:30:29;96437.88;;;10.88;96.63
4199;BME280;2113;50.946;14.610;2023-04-29T08:32:58;96443.41;;;10.85;96.66
4199;BME280;2113;50.946;14.610;2023-04-29T08:35:26;96449.22;;;10.45;97.17
4199;BME280;2113;50.946;14.610;2023-04-29T08:37:54;96450.81;;;10.38;97.78
4199;BME280;2113;50.946;14.610;2023-04-29T08:40:23;96457.31;;;10.34;97.43
4199;BME280;2113;50.946;14.610;2023-04-29T08:42:54;96458.84;;;10.19;97.47
4199;BME280;2113;50.946;14.610;2023-04-29T08:45:23;96463.22;;;10.18;98.75
4199;BME280;2113;50.946;14.610;2023-04-29T08:47:53;96461.81;;;10.06;99.07
4199;BME280;2113;50.946;14.610;2023-04-29T08:50:22;96471.78;;;9.93;99.58
4199;BME280;2113;50.946;14.610;2023-04-29T08:52:52;96466.88;;;9.90;100.00
4199;BME280;2113;50.946;14.610;2023-04-29T08:55:20;96474.03;;;9.88;99.94
4199;BME280;2113;50.946;14.610;2023-04-29T08:57:49;96475.47;;;9.82;100.00
4199;BME280;2113;50.946;14.610;2023-04-29T09:00:21;96471.50;;;9.78;100.00
4199;BME280;2113;50.946;14.610;2023-04-29T09:02:53;96471.41;;;10.06;100.00
4199;BME280;2113;50.946;14.610;2023-04-29T09:05:24;96470.66;;;10.31;99.94
4199;BME280;2113;50.946;14.610;2023-04-29T09:07:55;96471.13;;;10.52;98.18
4199;BME280;2113;50.946;14.610;2023-04-29T09:10:25;96468.34;;;10.80;97.23
4199;BME280;2113;50.946;14.610;2023-04-29T09:12:55;96475.97;;;10.65;97.18
4199;BME280;2113;50.946;14.610;2023-04-29T09:15:25;96473.97;;;10.59;97.16
4199;BME280;2113;50.946;14.610;2023-04-29T09:17:53;96486.44;;;10.47;98.27
4199;BME280;2113;50.946;14.610;2023-04-29T09:20:25;96475.56;;;10.52;97.62
4199;BME280;2113;50.946;14.610;2023-04-29T09:22:56;96484.34;;;10.51;98.03
4199;BME280;2113;50.946;14.610;2023-04-29T09:25:25;96485.47;;;10.48;98.54
4199;BME280;2113;50.946;14.610;2023-04-29T09:27:54;96490.44;;;10.33;98.51
4199;BME280;2113;50.946;14.610;2023-04-29T09:30:24;96494.78;;;10.25;99.56
4199;BME280;2113;50.946;14.610;2023-04-29T09:33:04;96499.59;;;10.02;99.28
4199;BME280;2113;50.946;14.610;2023-04-29T09:35:34;96500.25;;;10.04;100.00
4199;BME280;2113;50.946;14.610;2023-04-29T09:38:10;96496.53;;;10.07;100.00
4199;BME280;2113;50.946;14.610;2023-04-29T09:40:40;96503.91;;;9.93;100.00
4199;BME280;2113;50.946;14.610;2023-04-29T09:43:24;96510.47;;;9.80;100.00
4199;BME280;2113;50.946;14.610;2023-04-29T09:45:53;96515.75;;;9.88;100.00
4199;BME280;2113;50.946;14.610;2023-04-29T09:48:29;96515.03;;;9.95;100.00
4199;BME280;2113;50.946;14.610;2023-04-29T09:51:00;96519.50;;;10.03;99.73
4199;BME280;2113;50.946;14.610;2023-04-29T09:53:30;96518.47;;;10.31;99.95
4199;BME280;2113;50.946;14.610;2023-04-29T09:55:59;96511.59;;;10.48;97.75
4199;BME280;2113;50.946;14.610;2023-04-29T09:58:29;96510.22;;;10.88;95.33
4199;BME280;2113;50.946;14.610;2023-04-29T10:01:02;96513.19;;;11.27;93.40
4199;BME280;2113;50.946;14.610;2023-04-29T10:03:32;96507.56;;;11.56;90.24
4199;BME280;2113;50.946;14.610;2023-04-29T10:06:03;96511.56;;;11.76;90.56
4199;BME280;2113;50.946;14.610;2023-04-29T10:08:32;96508.53;;;11.55;90.73
4199;BME280;2113;50.946;14.610;2023-04-29T10:11:02;96514.53;;;11.39;91.07
4199;BME280;2113;50.946;14.610;2023-04-29T10:13:34;96506.44;;;11.58;90.88
4199;BME280;2113;50.946;14.610;2023-04-29T10:16:13;96504.38;;;11.78;88.63
4199;BME280;2113;50.946;14.610;2023-04-29T10:18:48;96504.94;;;12.22;88.42
4199;BME280;2113;50.946;14.610;2023-04-29T10:21:23;96504.06;;;12.95;87.68
4199;BME280;2113;50.946;14.610;2023-04-29T10:23:56;96506.41;;;13.76;87.27
4199;BME280;2113;50.946;14.610;2023-04-29T10:26:26;96496.78;;;14.37;82.29
4199;BME280;2113;50.946;14.610;2023-04-29T10:28:56;96509.72;;;13.31;79.99
4199;BME280;2113;50.946;14.610;2023-04-29T10:31:27;96508.22;;;12.57;84.01
4199;BME280;2113;50.946;14.610;2023-04-29T10:33:57;96499.03;;;12.53;84.24
4199;BME280;2113;50.946;14.610;2023-04-29T10:36:27;96505.28;;;12.35;84.25
4199;BME280;2113;50.946;14.610;2023-04-29T10:38:59;96502.63;;;12.03;85.56
4199;BME280;2113;50.946;14.610;2023-04-29T10:41:36;96507.50;;;11.90;86.11
4199;BME280;2113;50.946;14.610;2023-04-29T10:44:05;96501.16;;;12.65;85.48
4199;BME280;2113;50.946;14.610;2023-04-29T10:46:34;96507.31;;;13.05;84.67
4199;BME280;2113;50.946;14.610;2023-04-29T10:49:05;96503.63;;;12.02;83.03
4199;BME280;2113;50.946;14.610;2023-04-29T10:51:38;96514.22;;;11.34;86.10
4199;BME280;2113;50.946;14.610;2023-04-29T10:54:08;96516.22;;;11.14;87.21
4199;BME280;2113;50.946;14.610;2023-04-29T10:56:39;96508.19;;;11.08;87.77
4199;BME280;2113;50.946;14.610;2023-04-29T10:59:11;96520.50;;;11.23;87.51
4199;BME280;2113;50.946;14.610;2023-04-29T11:01:43;96512.16;;;11.62;88.69
4199;BME280;2113;50.946;14.610;2023-04-29T11:04:12;96507.66;;;11.80;87.28
4199;BME280;2113;50.946;14.610;2023-04-29T11:06:43;96511.75;;;11.91;87.97
4199;BME280;2113;50.946;14.610;2023-04-29T11:09:14;96506.41;;;12.08;86.91
4199;BME280;2113;50.946;14.610;2023-04-29T11:11:46;96510.50;;;12.35;85.10
4199;BME280;2113;50.946;14.610;2023-04-29T11:14:23;96511.31;;;12.44;85.51
4199;BME280;2113;50.946;14.610;2023-04-29T11:16:55;96513.25;;;12.82;82.75
4199;BME280;2113;50.946;14.610;2023-04-29T11:19:27;96514.72;;;12.85;83.68
4199;BME280;2113;50.946;14.610;2023-04-29T11:22:23;96516.72;;;12.34;83.61
4199;BME280;2113;50.946;14.610;2023-04-29T11:24:54;96519.31;;;12.59;83.17
4199;BME280;2113;50.946;14.610;2023-04-29T11:27:25;96508.69;;;12.44;83.32
4199;BME280;2113;50.946;14.610;2023-04-29T11:29:54;96510.97;;;12.31;82.91
4199;BME280;2113;50.946;14.610;2023-04-29T11:32:27;96514.25;;;12.33;85.62
4199;BME280;2113;50.946;14.610;2023-04-29T11:35:07;96521.63;;;12.13;85.14
4199;BME280;2113;50.946;14.610;2023-04-29T11:37:35;96518.28;;;11.79;83.17
4199;BME280;2113;50.946;14.610;2023-04-29T11:40:05;96526.09;;;11.70;87.10
4199;BME280;2113;50.946;14.610;2023-04-29T11:42:34;96527.88;;;11.70;86.36
4199;BME280;2113;50.946;14.610;2023-04-29T11:45:03;96535.00;;;11.94;85.00
4199;BME280;2113;50.946;14.610;2023-04-29T11:47:34;96542.19;;;11.92;80.92
4199;BME280;2113;50.946;14.610;2023-04-29T11:50:03;96536.69;;;11.61;83.63
4199;BME280;2113;50.946;14.610;2023-04-29T11:52:34;96547.59;;;11.14;86.22
4199;BME280;2113;50.946;14.610;2023-04-29T11:55:05;96550.78;;;10.74;89.67
4199;BME280;2113;50.946;14.610;2023-04-29T11:57:33;96553.13;;;10.59;91.63
4199;BME280;2113;50.946;14.610;2023-04-29T12:00:02;96558.38;;;10.67;94.66
4199;BME280;2113;50.946;14.610;2023-04-29T12:02:38;96564.16;;;10.53;93.46
4199;BME280;2113;50.946;14.610;2023-04-29T12:05:07;96562.72;;;10.59;94.47
4199;BME280;2113;50.946;14.610;2023-04-29T12:07:36;96558.22;;;10.69;94.35
4199;BME280;2113;50.946;14.610;2023-04-29T12:10:07;96562.78;;;10.67;91.04
4199;BME280;2113;50.946;14.610;2023-04-29T12:12:37;96571.66;;;10.74;92.25
4199;BME280;2113;50.946;14.610;2023-04-29T12:15:07;96570.56;;;10.59;89.41
4199;BME280;2113;50.946;14.610;2023-04-29T12:17:38;96569.50;;;10.69;92.40
4199;BME280;2113;50.946;14.610;2023-04-29T12:20:08;96565.09;;;10.96;89.95
4199;BME280;2113;50.946;14.610;2023-04-29T12:22:38;96574.97;;;11.36;89.40
4199;BME280;2113;50.946;14.610;2023-04-29T12:25:07;96567.56;;;11.57;86.85
4199;BME280;2113;50.946;14.610;2023-04-29T12:27:38;96564.59;;;11.52;86.36
4199;BME280;2113;50.946;14.610;2023-04-29T12:30:08;96569.75;;;11.70;85.54
4199;BME280;2113;50.946;14.610;2023-04-29T12:32:38;96567.06;;;11.62;86.57
4199;BME280;2113;50.946;14.610;2023-04-29T12:35:13;96575.56;;;11.56;85.26
4199;BME280;2113;50.946;14.610;2023-04-29T12:37:47;96573.25;;;11.45;85.23
4199;BME280;2113;50.946;14.610;2023-04-29T12:40:16;96578.38;;;11.28;84.59
4199;BME280;2113;50.946;14.610;2023-04-29T12:42:46;96571.19;;;11.64;86.36
4199;BME280;2113;50.946;14.610;2023-04-29T12:45:28;96569.84;;;11.94;84.56
4199;BME280;2113;50.946;14.610;2023-04-29T12:48:00;96580.34;;;12.02;82.99
4199;BME280;2113;50.946;14.610;2023-04-29T12:50:36;96582.00;;;12.12;82.71
4199;BME280;2113;50.946;14.610;2023-04-29T12:53:06;96583.28;;;11.99;81.98
4199;BME280;2113;50.946;14.610;2023-04-29T12:55:35;96578.75;;;11.75;82.11
4199;BME280;2113;50.946;14.610;2023-04-29T12:58:04;96586.75;;;12.16;81.85
4199;BME280;2113;50.946;14.610;2023-04-29T13:00:33;96584.16;;;12.40;80.92
4199;BME280;2113;50.946;14.610;2023-04-29T13:03:04;96575.81;;;12.86;80.77
4199;BME280;2113;50.946;14.610;2023-04-29T13:05:33;96578.22;;;13.28;78.64
4199;BME280;2113;50.946;14.610;2023-04-29T13:08:02;96582.34;;;13.22;78.37
4199;BME280;2113;50.946;14.610;2023-04-29T13:10:32;96581.50;;;13.38;78.11
4199;BME280;2113;50.946;14.610;2023-04-29T13:13:00;96585.63;;;13.24;75.21
4199;BME280;2113;50.946;14.610;2023-04-29T13:15:28;96584.50;;;12.70;75.00
4199;BME280;2113;50.946;14.610;2023-04-29T13:17:57;96598.41;;;12.95;77.14
4199;BME280;2113;50.946;14.610;2023-04-29T13:20:27;96595.25;;;12.18;77.11
4199;BME280;2113;50.946;14.610;2023-04-29T13:22:55;96601.84;;;11.80;79.78
4199;BME280;2113;50.946;14.610;2023-04-29T13:25:23;96608.41;;;11.24;81.09
4199;BME280;2113;50.946;14.610;2023-04-29T13:27:51;96605.50;;;11.01;81.81
4199;BME280;2113;50.946;14.610;2023-04-29T13:30:20;96615.94;;;11.01;81.64
4199;BME280;2113;50.946;14.610;2023-04-29T13:32:49;96618.25;;;11.04;81.80
4199;BME280;2113;50.946;14.610;2023-04-29T13:35:24;96618.72;;;11.00;81.95